createdAt,value
2018-04-30T00:00:22.627Z,68.40
2018-04-30T00:00:54.051Z,68.50
2018-04-30T00:01:25.471Z,68.70
2018-04-30T00:01:57.604Z,68.80
2018-04-30T00:02:29.003Z,68.80
2018-04-30T00:03:00.406Z,68.90
2018-04-30T00:03:32.527Z,69.00
2018-04-30T00:04:03.939Z,69.00
2018-04-30T00:04:35.355Z,69.00
2018-04-30T00:05:06.771Z,69.00
2018-04-30T00:05:38.924Z,69.20
2018-04-30T00:06:10.327Z,69.20
2018-04-30T00:06:41.771Z,69.40
2018-04-30T00:07:13.195Z,69.40
2018-04-30T00:07:44.599Z,69.40
2018-04-30T00:08:15.991Z,69.40
2018-04-30T00:08:47.395Z,69.40
2018-04-30T00:09:19.543Z,69.50
2018-04-30T00:09:50.960Z,69.50
2018-04-30T00:10:22.351Z,69.60
2018-04-30T00:10:53.788Z,69.70
2018-04-30T00:11:25.188Z,69.90
2018-04-30T00:11:56.588Z,69.90
2018-04-30T00:12:27.973Z,70.50
2018-04-30T00:12:59.379Z,69.90
2018-04-30T00:13:30.821Z,69.70
2018-04-30T00:14:02.233Z,69.90
2018-04-30T00:14:34.367Z,70.00
2018-04-30T00:15:06.539Z,69.90
2018-04-30T00:15:38.700Z,69.90
2018-04-30T00:16:10.087Z,69.80
2018-04-30T00:16:41.491Z,69.90
2018-04-30T00:17:13.615Z,69.70
2018-04-30T00:17:45.012Z,69.60
2018-04-30T00:18:16.395Z,69.80
2018-04-30T00:18:47.783Z,69.80
2018-04-30T00:19:19.211Z,69.80
2018-04-30T00:19:50.591Z,69.70
2018-04-30T00:20:22.003Z,70.30
2018-04-30T00:20:53.419Z,69.70
2018-04-30T00:21:24.799Z,69.90
2018-04-30T00:21:56.191Z,69.80
2018-04-30T00:22:28.333Z,69.60
2018-04-30T00:22:59.735Z,69.60
2018-04-30T00:23:31.160Z,69.60
2018-04-30T00:24:03.307Z,69.60
2018-04-30T00:24:36.179Z,69.70
2018-04-30T00:25:07.566Z,69.70
2018-04-30T00:25:39.003Z,69.90
2018-04-30T00:26:10.386Z,69.90
2018-04-30T00:26:41.781Z,70.00
2018-04-30T00:27:13.167Z,70.00
2018-04-30T00:27:44.556Z,70.00
2018-04-30T00:28:16.680Z,69.80
2018-04-30T00:28:48.067Z,69.70
2018-04-30T00:29:19.451Z,69.70
2018-04-30T00:29:52.327Z,69.60
2018-04-30T00:30:25.231Z,69.60
2018-04-30T00:30:57.389Z,69.60
2018-04-30T00:31:29.516Z,69.70
2018-04-30T00:32:01.671Z,70.20
2018-04-30T00:32:33.079Z,69.70
2018-04-30T00:33:04.479Z,69.60
2018-04-30T00:33:36.673Z,69.80
2018-04-30T00:34:08.019Z,69.80
2018-04-30T00:34:39.427Z,69.80
2018-04-30T00:35:11.560Z,70.10
2018-04-30T00:35:42.947Z,70.00
2018-04-30T00:36:15.105Z,70.20
2018-04-30T00:36:47.243Z,70.20
2018-04-30T00:37:19.379Z,70.30
2018-04-30T00:37:50.759Z,70.10
2018-04-30T00:38:22.152Z,70.20
2018-04-30T00:38:53.563Z,70.30
2018-04-30T00:39:24.955Z,70.30
2018-04-30T00:39:57.816Z,70.40
2018-04-30T00:40:29.207Z,70.30
2018-04-30T00:41:00.611Z,70.40
2018-04-30T00:41:32.025Z,70.40
2018-04-30T00:42:03.414Z,70.30
2018-04-30T00:42:35.547Z,70.60
2018-04-30T00:43:06.955Z,70.50
2018-04-30T00:43:38.361Z,70.70
2018-04-30T00:44:10.495Z,70.90
2018-04-30T00:44:41.887Z,70.90
2018-04-30T00:45:13.279Z,70.90
2018-04-30T00:45:44.668Z,70.90
2018-04-30T00:46:16.067Z,71.00
2018-04-30T00:46:47.489Z,71.00
2018-04-30T00:47:18.900Z,70.90
2018-04-30T00:47:50.315Z,70.80
2018-04-30T00:48:22.438Z,70.60
2018-04-30T00:48:55.316Z,70.50
2018-04-30T00:49:26.703Z,70.50
2018-04-30T00:49:58.109Z,70.40
2018-04-30T00:50:29.496Z,70.90
2018-04-30T00:51:00.900Z,71.00
2018-04-30T00:51:33.031Z,71.10
2018-04-30T00:52:04.447Z,71.00
2018-04-30T00:52:35.835Z,70.90
2018-04-30T00:53:07.218Z,70.90
2018-04-30T00:53:38.621Z,71.00
2018-04-30T00:54:10.044Z,71.20
2018-04-30T00:54:54.688Z,71.60
2018-04-30T00:55:26.074Z,71.60
2018-04-30T00:55:58.207Z,72.00
2018-04-30T00:56:29.599Z,72.00
2018-04-30T00:57:00.987Z,72.10
2018-04-30T00:57:33.911Z,71.90
2018-04-30T00:58:05.331Z,71.90
2018-04-30T00:58:37.459Z,71.80
2018-04-30T00:59:09.609Z,71.60
2018-04-30T00:59:41.012Z,71.60
2018-04-30T01:00:12.410Z,71.70
2018-04-30T01:00:43.811Z,71.60
2018-04-30T01:01:15.192Z,72.20
2018-04-30T01:01:46.611Z,71.80
2018-04-30T01:02:17.999Z,71.70
2018-04-30T01:02:50.143Z,71.40
2018-04-30T01:03:22.339Z,72.00
2018-04-30T01:03:53.739Z,71.40
2018-04-30T01:04:25.119Z,71.50
2018-04-30T01:04:56.519Z,71.70
2018-04-30T01:05:28.652Z,71.30
2018-04-30T01:06:00.060Z,71.30
2018-04-30T01:06:31.456Z,71.20
2018-04-30T01:07:02.867Z,71.20
2018-04-30T01:07:34.252Z,71.10
2018-04-30T01:08:06.412Z,70.90
2018-04-30T01:08:38.584Z,70.70
2018-04-30T01:09:10.731Z,70.60
2018-04-30T01:09:42.901Z,70.60
2018-04-30T01:10:15.028Z,70.70
2018-04-30T01:10:46.418Z,70.70
2018-04-30T01:11:17.839Z,70.70
2018-04-30T01:11:49.979Z,70.60
2018-04-30T01:12:21.404Z,70.60
2018-04-30T01:12:52.807Z,70.60
2018-04-30T01:13:24.239Z,70.60
2018-04-30T01:13:55.667Z,70.60
2018-04-30T01:14:27.067Z,70.50
2018-04-30T01:14:58.459Z,70.50
2018-04-30T01:15:29.851Z,70.40
2018-04-30T01:16:02.736Z,70.30
2018-04-30T01:16:34.872Z,70.10
2018-04-30T01:17:06.251Z,70.20
2018-04-30T01:17:38.407Z,70.20
2018-04-30T01:18:09.799Z,70.20
2018-04-30T01:18:41.223Z,70.50
2018-04-30T01:19:12.616Z,69.90
2018-04-30T01:19:45.503Z,69.70
2018-04-30T01:20:16.894Z,69.60
2018-04-30T01:20:48.291Z,69.50
2018-04-30T01:21:19.680Z,69.40
2018-04-30T01:21:51.090Z,69.40
2018-04-30T01:22:23.219Z,69.00
2018-04-30T01:22:54.611Z,69.00
2018-04-30T01:23:25.996Z,69.00
2018-04-30T01:23:57.407Z,69.00
2018-04-30T01:24:28.791Z,68.80
2018-04-30T01:25:00.936Z,69.00
2018-04-30T01:25:32.319Z,68.90
2018-04-30T01:26:03.707Z,68.70
2018-04-30T01:26:35.102Z,68.70
2018-04-30T01:27:06.489Z,68.50
2018-04-30T01:27:37.888Z,68.50
2018-04-30T01:28:09.273Z,68.50
2018-04-30T01:28:40.659Z,68.40
2018-04-30T01:29:12.088Z,68.30
2018-04-30T01:29:43.463Z,68.20
2018-04-30T01:30:14.876Z,68.20
2018-04-30T01:30:47.051Z,68.20
2018-04-30T01:31:18.470Z,68.20
2018-04-30T01:31:49.848Z,68.10
2018-04-30T01:32:21.231Z,68.00
2018-04-30T01:32:52.616Z,67.90
2018-04-30T01:33:24.011Z,67.80
2018-04-30T01:33:56.887Z,67.80
2018-04-30T01:34:29.066Z,67.70
2018-04-30T01:35:01.212Z,67.70
2018-04-30T01:35:32.603Z,67.60
2018-04-30T01:36:04.043Z,67.40
2018-04-30T01:36:35.435Z,67.40
2018-04-30T01:37:08.315Z,67.40
2018-04-30T01:37:39.719Z,67.30
2018-04-30T01:38:11.142Z,67.40
2018-04-30T01:38:42.543Z,67.30
2018-04-30T01:39:15.439Z,67.20
2018-04-30T01:39:47.591Z,67.00
2018-04-30T01:40:19.719Z,67.60
2018-04-30T01:40:51.167Z,67.10
2018-04-30T01:41:22.551Z,67.20
2018-04-30T01:41:53.932Z,67.10
2018-04-30T01:42:25.319Z,67.00
2018-04-30T01:42:57.447Z,67.00
2018-04-30T01:43:30.315Z,67.10
2018-04-30T01:44:01.724Z,67.00
2018-04-30T01:44:33.147Z,67.00
2018-04-30T01:45:04.604Z,67.00
2018-04-30T01:45:36.003Z,67.10
2018-04-30T01:46:07.387Z,67.10
2018-04-30T01:46:38.822Z,67.20
2018-04-30T01:47:10.203Z,67.00
2018-04-30T01:47:41.592Z,66.90
2018-04-30T01:48:13.751Z,66.90
2018-04-30T01:48:45.183Z,66.80
2018-04-30T01:49:17.324Z,66.80
2018-04-30T01:49:50.195Z,66.90
2018-04-30T01:50:21.644Z,66.80
2018-04-30T01:50:53.036Z,66.80
2018-04-30T01:51:24.411Z,67.40
2018-04-30T01:51:55.834Z,66.80
2018-04-30T01:52:27.243Z,66.80
2018-04-30T01:52:58.631Z,66.80
2018-04-30T01:53:30.023Z,66.80
2018-04-30T01:54:01.405Z,66.80
2018-04-30T01:54:32.847Z,66.80
2018-04-30T01:55:04.251Z,66.30
2018-04-30T01:55:35.663Z,66.70
2018-04-30T01:56:07.076Z,66.70
2018-04-30T01:56:38.494Z,66.60
2018-04-30T01:57:09.915Z,66.90
2018-04-30T01:57:41.331Z,66.30
2018-04-30T01:58:13.460Z,66.30
2018-04-30T01:58:44.847Z,66.30
2018-04-30T01:59:16.975Z,66.10
2018-04-30T01:59:48.362Z,66.10
2018-04-30T02:00:19.793Z,66.30
2018-04-30T02:00:51.219Z,66.20
2018-04-30T02:01:23.361Z,65.90
2018-04-30T02:01:54.743Z,65.90
2018-04-30T02:02:26.171Z,66.00
2018-04-30T02:02:58.324Z,66.00
2018-04-30T02:03:30.451Z,65.90
2018-04-30T02:04:01.844Z,65.90
2018-04-30T02:04:33.279Z,65.80
2018-04-30T02:05:04.687Z,65.80
2018-04-30T02:05:36.079Z,65.80
2018-04-30T02:06:07.488Z,66.00
2018-04-30T02:06:38.906Z,66.00
2018-04-30T02:07:11.047Z,65.80
2018-04-30T02:07:42.463Z,65.80
2018-04-30T02:08:13.859Z,65.60
2018-04-30T02:08:45.239Z,65.30
2018-04-30T02:09:16.623Z,65.00
2018-04-30T02:09:48.015Z,65.00
2018-04-30T02:10:19.423Z,65.10
2018-04-30T02:10:51.600Z,65.20
2018-04-30T02:11:23.776Z,65.10
2018-04-30T02:11:55.159Z,65.10
2018-04-30T02:12:26.571Z,65.00
2018-04-30T02:12:57.963Z,65.20
2018-04-30T02:13:29.347Z,65.20
2018-04-30T02:14:00.759Z,65.80
2018-04-30T02:14:32.887Z,65.00
2018-04-30T02:15:04.296Z,65.00
2018-04-30T02:15:35.703Z,65.00
2018-04-30T02:16:07.823Z,65.20
2018-04-30T02:16:39.236Z,65.20
2018-04-30T02:17:10.611Z,64.80
2018-04-30T02:17:41.998Z,64.70
2018-04-30T02:18:14.135Z,64.90
2018-04-30T02:18:46.271Z,64.80
2018-04-30T02:19:17.651Z,64.80
2018-04-30T02:19:49.771Z,65.00
2018-04-30T02:20:21.151Z,65.00
2018-04-30T02:20:53.283Z,65.10
2018-04-30T02:21:24.688Z,65.10
2018-04-30T02:21:56.118Z,64.80
2018-04-30T02:22:27.490Z,64.70
2018-04-30T02:22:58.875Z,64.80
2018-04-30T02:23:30.994Z,64.80
2018-04-30T02:24:03.152Z,64.80
2018-04-30T02:24:34.575Z,64.80
2018-04-30T02:25:05.983Z,64.90
2018-04-30T02:25:37.407Z,64.80
2018-04-30T02:26:09.542Z,64.80
2018-04-30T02:26:41.762Z,64.40
2018-04-30T02:27:13.180Z,64.90
2018-04-30T02:27:44.587Z,65.00
2018-04-30T02:28:15.978Z,65.10
2018-04-30T02:28:47.371Z,65.20
2018-04-30T02:29:18.771Z,64.90
2018-04-30T02:29:50.159Z,64.80
2018-04-30T02:30:22.312Z,64.40
2018-04-30T02:30:55.183Z,64.50
2018-04-30T02:31:26.574Z,64.50
2018-04-30T02:31:57.976Z,64.60
2018-04-30T02:32:29.387Z,64.70
2018-04-30T02:33:00.775Z,64.40
2018-04-30T02:33:32.991Z,64.50
2018-04-30T02:34:05.068Z,64.40
2018-04-30T02:34:36.459Z,64.30
2018-04-30T02:35:07.852Z,65.00
2018-04-30T02:35:39.999Z,64.40
2018-04-30T02:36:11.377Z,64.40
2018-04-30T02:36:43.501Z,64.30
2018-04-30T02:37:14.902Z,64.20
2018-04-30T02:37:46.362Z,64.20
2018-04-30T02:38:17.723Z,64.30
2018-04-30T02:38:49.119Z,64.30
2018-04-30T02:39:20.519Z,64.30
2018-04-30T02:39:51.925Z,64.30
2018-04-30T02:40:23.334Z,64.30
2018-04-30T02:40:54.727Z,64.30
2018-04-30T02:41:26.107Z,64.20
2018-04-30T02:41:58.242Z,64.20
2018-04-30T02:42:31.115Z,64.20
2018-04-30T02:43:02.553Z,64.20
2018-04-30T02:43:35.427Z,64.10
2018-04-30T02:44:07.571Z,64.00
2018-04-30T02:44:38.971Z,64.00
2018-04-30T02:45:10.363Z,64.00
2018-04-30T02:45:41.757Z,63.90
2018-04-30T02:46:13.167Z,64.00
2018-04-30T02:46:44.559Z,64.00
2018-04-30T02:47:15.963Z,64.00
2018-04-30T02:47:47.380Z,64.00
2018-04-30T02:48:18.800Z,64.10
2018-04-30T02:48:50.190Z,64.20
2018-04-30T02:49:22.320Z,64.10
2018-04-30T02:49:53.703Z,64.10
2018-04-30T02:50:25.085Z,64.00
2018-04-30T02:50:56.491Z,63.90
2018-04-30T02:51:27.871Z,64.00
2018-04-30T02:51:59.259Z,64.10
2018-04-30T02:52:31.384Z,64.00
2018-04-30T02:53:02.826Z,64.00
2018-04-30T02:53:34.218Z,64.10
2018-04-30T02:54:05.605Z,64.10
2018-04-30T02:54:37.759Z,64.20
2018-04-30T02:55:09.139Z,64.70
2018-04-30T02:55:41.263Z,64.10
2018-04-30T02:56:12.649Z,64.00
2018-04-30T02:56:44.051Z,64.00
2018-04-30T02:57:15.432Z,64.10
2018-04-30T02:57:46.839Z,64.20
2018-04-30T02:58:18.218Z,64.20
2018-04-30T02:58:49.624Z,64.20
2018-04-30T02:59:21.754Z,64.80
2018-04-30T02:59:53.160Z,64.00
2018-04-30T03:00:24.547Z,64.20
2018-04-30T03:00:55.936Z,64.10
2018-04-30T03:01:27.320Z,64.10
2018-04-30T03:01:58.712Z,64.00
2018-04-30T03:02:30.102Z,63.90
2018-04-30T03:03:01.491Z,63.90
2018-04-30T03:03:32.887Z,64.10
2018-04-30T03:04:04.303Z,64.20
2018-04-30T03:04:35.695Z,64.00
2018-04-30T03:05:07.104Z,64.00
2018-04-30T03:05:38.526Z,64.00
2018-04-30T03:06:09.946Z,64.10
2018-04-30T03:06:41.356Z,64.10
2018-04-30T03:07:12.772Z,64.10
2018-04-30T03:07:44.167Z,64.10
2018-04-30T03:08:16.291Z,64.10
2018-04-30T03:08:47.672Z,64.10
2018-04-30T03:09:19.084Z,64.10
2018-04-30T03:09:51.327Z,64.00
2018-04-30T03:10:24.116Z,64.10
2018-04-30T03:10:55.499Z,64.10
2018-04-30T03:11:26.919Z,64.20
2018-04-30T03:11:59.071Z,64.10
2018-04-30T03:12:31.203Z,64.00
2018-04-30T03:13:02.628Z,64.00
2018-04-30T03:13:34.047Z,64.00
2018-04-30T03:14:05.490Z,64.00
2018-04-30T03:14:36.899Z,64.10
2018-04-30T03:15:09.059Z,64.10
2018-04-30T03:15:41.195Z,64.20
2018-04-30T03:16:13.367Z,64.30
2018-04-30T03:16:44.752Z,64.30
2018-04-30T03:17:16.144Z,64.60
2018-04-30T03:17:48.272Z,64.40
2018-04-30T03:18:19.683Z,64.40
2018-04-30T03:18:51.075Z,64.30
2018-04-30T03:19:22.474Z,64.20
2018-04-30T03:19:53.887Z,64.20
2018-04-30T03:20:26.016Z,64.10
2018-04-30T03:20:57.403Z,64.10
2018-04-30T03:21:28.807Z,64.20
2018-04-30T03:22:00.939Z,64.00
2018-04-30T03:22:32.332Z,64.00
2018-04-30T03:23:03.739Z,64.20
2018-04-30T03:23:35.115Z,64.50
2018-04-30T03:24:06.519Z,64.50
2018-04-30T03:24:37.911Z,64.40
2018-04-30T03:25:09.342Z,64.40
2018-04-30T03:25:40.753Z,64.20
2018-04-30T03:26:13.632Z,64.20
2018-04-30T03:26:45.088Z,64.20
2018-04-30T03:27:16.532Z,63.60
2018-04-30T03:27:47.859Z,64.60
2018-04-30T03:28:19.243Z,63.90
2018-04-30T03:28:50.635Z,63.90
2018-04-30T03:29:22.019Z,64.00
2018-04-30T03:29:53.419Z,63.90
2018-04-30T03:30:25.596Z,64.40
2018-04-30T03:30:57.716Z,64.00
2018-04-30T03:31:29.119Z,63.90
2018-04-30T03:32:00.523Z,64.20
2018-04-30T03:32:32.664Z,64.10
2018-04-30T03:33:04.071Z,64.00
2018-04-30T03:33:35.479Z,63.90
2018-04-30T03:34:07.611Z,64.10
2018-04-30T03:34:39.011Z,64.10
2018-04-30T03:35:10.399Z,64.20
2018-04-30T03:35:42.563Z,63.90
2018-04-30T03:36:13.966Z,63.90
2018-04-30T03:36:45.343Z,64.50
2018-04-30T03:37:16.727Z,64.00
2018-04-30T03:37:48.123Z,64.10
2018-04-30T03:38:20.289Z,64.00
2018-04-30T03:38:51.676Z,63.90
2018-04-30T03:39:23.069Z,64.50
2018-04-30T03:39:55.204Z,64.50
2018-04-30T03:40:26.623Z,63.90
2018-04-30T03:40:58.043Z,64.00
2018-04-30T03:41:29.431Z,63.90
2018-04-30T03:42:00.819Z,63.90
2018-04-30T03:42:32.223Z,63.80
2018-04-30T03:43:03.651Z,63.90
2018-04-30T03:43:35.052Z,63.90
2018-04-30T03:44:06.439Z,63.90
2018-04-30T03:44:37.839Z,64.10
2018-04-30T03:45:09.239Z,63.90
2018-04-30T03:45:40.627Z,63.90
2018-04-30T03:46:12.064Z,63.90
2018-04-30T03:46:43.464Z,64.00
2018-04-30T03:47:15.598Z,63.90
2018-04-30T03:47:46.996Z,63.90
2018-04-30T03:48:18.391Z,63.90
2018-04-30T03:48:49.771Z,63.80
2018-04-30T03:49:21.156Z,63.70
2018-04-30T03:49:52.575Z,63.70
2018-04-30T03:50:23.967Z,63.70
2018-04-30T03:50:56.108Z,63.70
2018-04-30T03:51:29.035Z,63.60
2018-04-30T03:52:00.471Z,63.60
2018-04-30T03:52:31.907Z,63.70
2018-04-30T03:53:04.045Z,63.80
2018-04-30T03:53:35.460Z,63.80
2018-04-30T03:54:06.852Z,63.70
2018-04-30T03:54:38.268Z,63.60
2018-04-30T03:55:10.399Z,63.50
2018-04-30T03:55:41.779Z,63.50
2018-04-30T03:56:13.919Z,63.50
2018-04-30T03:56:45.360Z,63.50
2018-04-30T03:57:18.252Z,63.50
2018-04-30T03:57:50.416Z,63.70
2018-04-30T03:58:22.547Z,63.70
2018-04-30T03:58:54.730Z,63.70
2018-04-30T03:59:26.854Z,63.50
2018-04-30T03:59:58.250Z,63.50
2018-04-30T04:00:41.815Z,63.70
2018-04-30T04:01:26.258Z,63.50
2018-04-30T04:02:10.664Z,63.60
2018-04-30T04:02:54.359Z,63.60
2018-04-30T04:03:38.107Z,63.50
2018-04-30T04:04:22.608Z,63.40
2018-04-30T04:05:06.319Z,63.40
2018-04-30T04:05:49.995Z,63.50
2018-04-30T04:06:34.243Z,63.60
2018-04-30T04:07:05.634Z,63.60
2018-04-30T04:07:37.087Z,63.70
2018-04-30T04:08:08.496Z,63.50
2018-04-30T04:08:39.883Z,63.60
2018-04-30T04:09:11.284Z,63.50
2018-04-30T04:09:43.419Z,64.20
2018-04-30T04:10:14.811Z,63.70
2018-04-30T04:10:46.211Z,63.80
2018-04-30T04:11:17.603Z,63.80
2018-04-30T04:11:48.997Z,63.80
2018-04-30T04:12:20.393Z,63.80
2018-04-30T04:12:51.815Z,64.00
2018-04-30T04:13:23.192Z,63.80
2018-04-30T04:13:54.619Z,63.60
2018-04-30T04:14:26.034Z,63.60
2018-04-30T04:14:57.415Z,63.70
2018-04-30T04:15:28.794Z,63.60
2018-04-30T04:16:00.923Z,63.70
2018-04-30T04:16:32.315Z,63.70
2018-04-30T04:17:03.698Z,63.70
2018-04-30T04:17:35.087Z,63.90
2018-04-30T04:18:07.244Z,63.40
2018-04-30T04:18:39.376Z,63.40
2018-04-30T04:19:10.783Z,63.40
2018-04-30T04:19:42.175Z,63.40
2018-04-30T04:20:13.559Z,63.40
2018-04-30T04:20:44.977Z,63.60
2018-04-30T04:21:17.130Z,63.70
2018-04-30T04:21:48.536Z,63.70
2018-04-30T04:22:19.934Z,63.60
2018-04-30T04:22:51.326Z,63.40
2018-04-30T04:23:23.523Z,63.50
2018-04-30T04:23:54.947Z,63.50
2018-04-30T04:24:27.096Z,63.40
2018-04-30T04:24:58.483Z,63.40
2018-04-30T04:25:29.867Z,63.30
2018-04-30T04:26:08.323Z,63.60
2018-04-30T04:26:39.715Z,63.60
2018-04-30T04:27:11.120Z,63.50
2018-04-30T04:27:42.495Z,63.40
2018-04-30T04:28:13.888Z,63.40
2018-04-30T04:28:45.304Z,63.60
2018-04-30T04:29:17.431Z,63.30
2018-04-30T04:29:48.818Z,63.90
2018-04-30T04:30:20.215Z,63.20
2018-04-30T04:30:51.598Z,63.10
2018-04-30T04:31:23.026Z,63.20
2018-04-30T04:31:55.151Z,63.10
2018-04-30T04:32:26.558Z,63.10
2018-04-30T04:32:57.947Z,63.00
2018-04-30T04:33:30.081Z,62.90
2018-04-30T04:34:01.491Z,62.90
2018-04-30T04:34:32.891Z,62.80
2018-04-30T04:35:04.283Z,62.90
2018-04-30T04:35:35.680Z,62.90
2018-04-30T04:36:07.084Z,63.10
2018-04-30T04:36:38.478Z,63.10
2018-04-30T04:37:09.874Z,63.00
2018-04-30T04:37:41.266Z,63.10
2018-04-30T04:38:12.655Z,63.10
2018-04-30T04:38:44.055Z,62.80
2018-04-30T04:39:15.472Z,62.80
2018-04-30T04:39:46.880Z,62.40
2018-04-30T04:40:18.288Z,62.20
2018-04-30T04:40:49.734Z,62.00
2018-04-30T04:41:21.126Z,61.90
2018-04-30T04:41:52.515Z,61.90
2018-04-30T04:42:23.915Z,61.90
2018-04-30T04:42:55.323Z,62.00
2018-04-30T04:43:26.722Z,61.90
2018-04-30T04:43:58.863Z,61.90
2018-04-30T04:44:31.047Z,61.80
2018-04-30T04:45:02.464Z,61.80
2018-04-30T04:45:34.595Z,62.00
2018-04-30T04:46:06.007Z,61.90
2018-04-30T04:46:37.390Z,61.90
2018-04-30T04:47:08.835Z,61.80
2018-04-30T04:47:40.230Z,61.80
2018-04-30T04:48:11.646Z,61.60
2018-04-30T04:48:43.039Z,61.60
2018-04-30T04:49:14.447Z,62.40
2018-04-30T04:49:45.868Z,61.90
2018-04-30T04:50:18.020Z,62.50
2018-04-30T04:50:50.163Z,61.50
2018-04-30T04:51:21.560Z,61.50
2018-04-30T04:51:52.943Z,62.00
2018-04-30T04:52:25.131Z,61.70
2018-04-30T04:52:56.520Z,61.60
2018-04-30T04:53:27.910Z,61.60
2018-04-30T04:54:00.032Z,61.50
2018-04-30T04:54:31.415Z,61.50
2018-04-30T04:55:02.875Z,62.20
2018-04-30T04:55:34.263Z,61.40
2018-04-30T04:56:05.650Z,61.40
2018-04-30T04:56:37.063Z,61.40
2018-04-30T04:57:08.487Z,61.40
2018-04-30T04:57:39.878Z,61.30
2018-04-30T04:58:11.274Z,61.40
2018-04-30T04:58:42.666Z,61.50
2018-04-30T04:59:14.048Z,61.70
2018-04-30T04:59:45.390Z,61.70
2018-04-30T05:00:16.823Z,61.60
2018-04-30T05:00:49.699Z,61.30
2018-04-30T05:01:21.115Z,61.30
2018-04-30T05:01:52.503Z,61.10
2018-04-30T05:02:24.697Z,61.10
2018-04-30T05:02:56.039Z,61.00
2018-04-30T05:03:27.446Z,61.00
2018-04-30T05:03:58.883Z,60.90
2018-04-30T05:04:30.271Z,61.10
2018-04-30T05:05:01.664Z,60.40
2018-04-30T05:05:33.079Z,60.70
2018-04-30T05:06:04.486Z,60.80
2018-04-30T05:06:35.882Z,60.50
2018-04-30T05:07:07.267Z,60.30
2018-04-30T05:07:38.666Z,60.50
2018-04-30T05:08:10.038Z,60.60
2018-04-30T05:08:41.431Z,60.50
2018-04-30T05:09:12.810Z,60.30
2018-04-30T05:09:44.941Z,60.20
2018-04-30T05:10:18.036Z,60.20
2018-04-30T05:10:50.227Z,60.40
2018-04-30T05:11:21.610Z,60.40
2018-04-30T05:11:52.996Z,60.50
2018-04-30T05:12:24.395Z,60.60
2018-04-30T05:12:55.779Z,60.30
2018-04-30T05:13:27.175Z,59.90
2018-04-30T05:14:00.053Z,59.80
2018-04-30T05:14:31.472Z,59.80
2018-04-30T05:15:02.894Z,59.70
2018-04-30T05:15:34.282Z,59.50
2018-04-30T05:16:05.651Z,59.10
2018-04-30T05:16:37.055Z,59.10
2018-04-30T05:17:08.438Z,58.90
2018-04-30T05:17:40.563Z,59.20
2018-04-30T05:18:12.012Z,59.20
2018-04-30T05:18:43.380Z,59.30
2018-04-30T05:19:15.504Z,59.50
2018-04-30T05:19:46.892Z,59.50
2018-04-30T05:20:18.295Z,59.20
2018-04-30T05:20:49.747Z,58.70
2018-04-30T05:21:21.126Z,58.50
2018-04-30T05:21:52.515Z,58.20
2018-04-30T05:22:23.905Z,58.10
2018-04-30T05:22:55.294Z,58.10
2018-04-30T05:23:26.722Z,57.80
2018-04-30T05:23:58.138Z,57.90
2018-04-30T05:24:29.523Z,58.00
2018-04-30T05:25:00.914Z,58.10
2018-04-30T05:25:32.327Z,57.60
2018-04-30T05:26:03.752Z,56.80
2018-04-30T05:26:35.183Z,56.60
2018-04-30T05:27:06.567Z,56.30
2018-04-30T05:27:37.956Z,55.40
2018-04-30T05:28:09.351Z,54.70
2018-04-30T05:28:40.739Z,54.30
2018-04-30T05:29:12.126Z,53.90
2018-04-30T05:29:44.262Z,52.80
2018-04-30T05:30:15.655Z,52.80
2018-04-30T05:30:47.038Z,52.00
2018-04-30T05:31:18.418Z,51.80
2018-04-30T05:31:49.850Z,51.60
2018-04-30T05:32:21.255Z,51.10
2018-04-30T05:32:52.700Z,50.80
2018-04-30T05:33:24.228Z,50.50
2018-04-30T05:33:55.689Z,50.10
2018-04-30T05:34:27.043Z,49.70
2018-04-30T05:34:59.176Z,49.40
2018-04-30T05:35:30.591Z,49.30
2018-04-30T05:36:02.020Z,49.30
2018-04-30T05:36:33.432Z,49.30
2018-04-30T05:37:04.867Z,49.00
2018-04-30T05:37:36.990Z,48.40
2018-04-30T05:38:08.387Z,48.40
2018-04-30T05:38:39.790Z,48.30
2018-04-30T05:39:11.216Z,47.90
2018-04-30T05:39:42.638Z,47.20
2018-04-30T05:40:14.019Z,47.30
2018-04-30T05:40:46.899Z,47.50
2018-04-30T05:41:18.291Z,47.40
2018-04-30T05:41:49.715Z,47.30
2018-04-30T05:42:21.157Z,47.30
2018-04-30T05:42:52.575Z,47.30
2018-04-30T05:43:24.723Z,47.00
2018-04-30T05:43:56.119Z,46.80
2018-04-30T05:44:27.587Z,46.80
2018-04-30T05:44:58.999Z,46.60
2018-04-30T05:45:30.387Z,46.60
2018-04-30T05:46:02.568Z,46.50
2018-04-30T05:46:34.704Z,46.60
2018-04-30T05:47:06.127Z,46.60
2018-04-30T05:47:37.543Z,46.50
2018-04-30T05:48:09.046Z,46.50
2018-04-30T05:48:40.371Z,46.30
2018-04-30T05:49:11.757Z,46.50
2018-04-30T05:49:43.163Z,46.00
2018-04-30T05:50:14.579Z,46.20
2018-04-30T05:50:45.991Z,45.90
2018-04-30T05:51:17.367Z,46.10
2018-04-30T05:51:48.755Z,46.30
2018-04-30T05:52:20.148Z,45.80
2018-04-30T05:52:51.586Z,45.80
2018-04-30T05:53:23.007Z,45.70
2018-04-30T05:53:54.396Z,46.30
2018-04-30T05:54:25.775Z,46.40
2018-04-30T05:54:57.172Z,46.90
2018-04-30T05:55:28.554Z,47.00
2018-04-30T05:55:59.964Z,47.80
2018-04-30T05:56:32.098Z,47.20
2018-04-30T05:57:03.498Z,47.20
2018-04-30T05:57:34.880Z,46.90
2018-04-30T05:58:06.247Z,46.80
2018-04-30T05:58:37.595Z,47.00
2018-04-30T05:59:09.000Z,47.30
2018-04-30T05:59:40.392Z,46.80
2018-04-30T06:00:11.787Z,47.10
2018-04-30T06:00:43.183Z,46.70
2018-04-30T06:01:14.571Z,46.70
2018-04-30T06:01:45.967Z,46.90
2018-04-30T06:02:17.351Z,47.20
2018-04-30T06:02:49.659Z,47.80
2018-04-30T06:03:21.077Z,47.90
2018-04-30T06:03:52.498Z,47.80
2018-04-30T06:04:23.891Z,47.70
2018-04-30T06:04:55.271Z,48.00
2018-04-30T06:05:26.654Z,48.00
2018-04-30T06:05:58.780Z,48.60
2018-04-30T06:06:30.187Z,48.50
2018-04-30T06:07:01.570Z,48.90
2018-04-30T06:07:32.959Z,49.40
2018-04-30T06:08:04.384Z,49.40
2018-04-30T06:08:35.819Z,49.40
2018-04-30T06:09:07.247Z,49.80
2018-04-30T06:09:38.591Z,50.60
2018-04-30T06:10:10.735Z,51.50
2018-04-30T06:10:42.124Z,51.50
2018-04-30T06:11:13.539Z,52.00
2018-04-30T06:11:44.967Z,52.30
2018-04-30T06:12:17.108Z,52.90
2018-04-30T06:12:48.487Z,52.90
2018-04-30T06:13:19.907Z,53.10
2018-04-30T06:13:51.311Z,52.80
2018-04-30T06:14:23.387Z,53.30
2018-04-30T06:14:54.816Z,53.30
2018-04-30T06:15:26.215Z,53.70
2018-04-30T06:15:57.607Z,53.80
2018-04-30T06:16:29.014Z,54.00
2018-04-30T06:17:00.399Z,54.50
2018-04-30T06:17:31.812Z,54.30
2018-04-30T06:18:03.913Z,54.30
2018-04-30T06:18:35.300Z,54.30
2018-04-30T06:19:06.708Z,54.70
2018-04-30T06:19:38.850Z,54.50
2018-04-30T06:20:10.236Z,54.50
2018-04-30T06:20:41.627Z,54.20
2018-04-30T06:21:13.027Z,54.30
2018-04-30T06:21:44.415Z,54.80
2018-04-30T06:22:15.802Z,54.50
2018-04-30T06:22:47.187Z,54.90
2018-04-30T06:23:19.331Z,53.80
2018-04-30T06:23:50.712Z,54.30
2018-04-30T06:24:22.078Z,54.40
2018-04-30T06:24:53.419Z,54.10
2018-04-30T06:25:24.795Z,53.80
2018-04-30T06:25:56.199Z,54.00
2018-04-30T06:26:27.604Z,53.80
2018-04-30T06:26:58.976Z,53.70
2018-04-30T06:27:30.295Z,53.60
2018-04-30T06:28:01.638Z,54.00
2018-04-30T06:28:32.975Z,54.40
2018-04-30T06:29:04.343Z,54.50
2018-04-30T06:29:35.707Z,54.60
2018-04-30T06:30:07.093Z,54.40
2018-04-30T06:30:38.491Z,54.70
2018-04-30T06:31:09.893Z,54.90
2018-04-30T06:31:41.288Z,54.50
2018-04-30T06:32:12.627Z,54.90
2018-04-30T06:32:44.031Z,54.80
2018-04-30T06:33:15.415Z,54.70
2018-04-30T06:33:46.755Z,55.00
2018-04-30T06:34:18.156Z,54.80
2018-04-30T06:34:49.523Z,55.40
2018-04-30T06:35:20.918Z,54.50
2018-04-30T06:35:52.319Z,55.00
2018-04-30T06:36:23.610Z,55.60
2018-04-30T06:36:54.946Z,55.70
2018-04-30T06:37:26.287Z,55.30
2018-04-30T06:37:57.635Z,55.30
2018-04-30T06:38:28.975Z,55.70
2018-04-30T06:39:00.316Z,55.90
2018-04-30T06:39:31.663Z,55.40
2018-04-30T06:40:03.096Z,55.70
2018-04-30T06:40:34.468Z,55.70
2018-04-30T06:41:05.816Z,55.90
2018-04-30T06:41:37.151Z,55.10
2018-04-30T06:42:08.487Z,55.00
2018-04-30T06:42:39.867Z,55.10
2018-04-30T06:43:11.991Z,55.40
2018-04-30T06:43:43.375Z,55.30
2018-04-30T06:44:14.723Z,55.30
2018-04-30T06:44:46.107Z,54.90
2018-04-30T06:45:17.519Z,54.90
2018-04-30T06:45:48.899Z,55.20
2018-04-30T06:46:20.298Z,55.30
2018-04-30T06:46:51.679Z,55.10
2018-04-30T06:47:23.060Z,55.20
2018-04-30T06:47:55.183Z,55.90
2018-04-30T06:48:26.567Z,55.80
2018-04-30T06:48:57.961Z,56.40